Revillo, South Dakota
Current Conditions -  °F | °C
As of 11:33 PM on Wednesday 17 Dec 2014 (Local Time) from KDXX Reporting Station
Clear Clear  
Wind Chill:   Ceiling: Unl
Heat Index:   Visibility: 10mi
Dew Point:   Wind: 0mph
Humidity: 92%   Direction: NA
Pressure: 30.32"   Gusts: NA
Location:  45.02°N, 96.57°W
Report Text: KDXX 180533Z AUTO 00000KT 10SM CLR M13/M14 A3032 RMK AO2
Loading
Personal Weather Stations






























Interactive Weather Map New forecast layout! Learn more

10-Day Weather Forecast

Advertisements
Track Severe Weather on mobile